• Join FlightAware (Why Join?)
  • Login
  • US Flag 
08:21PM EDT


 

Airport Tracker/Info


-or-


 

Live Flight TrackerFlight Track Log ✈ UAL1062 ✈ 12-Oct-2013 ✈ KCLE - KLAX

Flight Track Log - Related Links

Times and Time Zones

All times are in EDT time to prevent confusion due to time zone crossing. See the UAL1062 flight status page for this flight to view local times or setup timezone preferences in your user account.

Time Position Orientation Groundspeed Altitude Reporting Facility
EDT Latitude Longitude Course Direction KTS MPH feet Rate Location/Type
05:58PM 41.4200 -81.8350 49° Northeast 180 207 1,300  Level FlightAware
05:58PM 41.4320 -81.8230 37° Northeast 189 217 1,800 1,800 Climbing FlightAware
05:58PM 41.4350 -81.8210 27° Northeast 193 222 1,900 900 Climbing FlightAware
05:58PM 41.4420 -81.8200 North 200 230 2,000 1,500 Climbing FlightAware
05:59PM 41.4690 -81.8240 354° North 225 259 2,800 1,620 Climbing FlightAware
05:59PM 41.4820 -81.8270 350° North 235 270 3,100 1,680 Climbing FlightAware
05:59PM 41.5080 -81.8350 347° North 251 289 3,800 1,740 Climbing FlightAware
05:59PM 41.5100 -81.8360 339° North 254 292 3,800 1,800 Level FlightAware
05:59PM 41.5200 -81.8490 316° Northwest 260 299 4,200 2,400 Climbing FlightAware
06:00PM 41.5260 -81.8710 290° West 257 296 4,800 2,280 Climbing FlightAware
06:00PM 41.5270 -81.8770 283° West 256 295 4,900 1,200 Climbing FlightAware
06:00PM 41.5210 -81.9080 256° West 268 308 5,300 2,040 Climbing FlightAware
06:00PM 41.5120 -81.9350 246° West 268 308 6,200 2,820 Climbing FlightAware
06:01PM 41.5000 -81.9680 244° Southwest 269 310 7,200 2,580 Climbing FlightAware
06:01PM 41.4880 -82.0030 245° Southwest 271 312 8,200 2,520 Climbing FlightAware
06:01PM 41.4780 -82.0310 245° Southwest 276 318 9,000 2,220 Climbing FlightAware
06:02PM 41.4690 -82.0560 244° Southwest 282 325 9,500 1,620 Climbing FlightAware
06:02PM 41.4450 -82.1260 245° Southwest 313 360 10,600 1,320 Climbing FlightAware
06:03PM 41.4240 -82.1850 245° Southwest 345 397 11,200 1,500 Climbing FlightAware
06:03PM 41.3990 -82.2570 245° Southwest 361 415 12,300 1,920 Climbing FlightAware
06:04PM 41.3750 -82.3280 246° West 370 426 13,500 1,800 Climbing FlightAware
06:05PM 41.3490 -82.4010 245° Southwest 386 444 14,500 2,040 Climbing FlightAware
06:05PM 41.3430 -82.4910 265° West 392 451 16,000 2,100 Climbing FlightAware
06:06PM 41.3510 -82.5650 278° West 400 460 16,900 1,740 Climbing FlightAware
06:06PM 41.3590 -82.6470 277° West 406 467 17,900 1,920 Climbing FlightAware
06:07PM 41.3670 -82.7340 277° West 409 471 19,100 1,800 Climbing FlightAware
06:08PM 41.3760 -82.8250 278° West 414 476 20,100 1,560 Climbing FlightAware
06:08PM 41.3850 -82.9160 278° West 422 486 21,000 1,560 Climbing FlightAware
06:09PM 41.3940 -83.0160 277° West 429 494 22,000 1,440 Climbing FlightAware
06:09PM 41.4030 -83.1060 278° West 434 499 22,800 1,260 Climbing FlightAware
06:10PM 41.4120 -83.2040 277° West 443 510 23,500 1,140 Climbing FlightAware
06:10PM 41.4180 -83.2920 275° West 449 517 24,100 1,200 Climbing FlightAware
06:11PM 41.4140 -83.3860 267° West 450 518 24,900 1,380 Climbing FlightAware
06:12PM 41.4090 -83.4780 266° West 449 517 25,700 1,380 Climbing FlightAware
06:12PM 41.4030 -83.5870 266° West 450 518 26,600 1,320 Climbing FlightAware
06:13PM 41.3980 -83.6890 266° West 450 518 27,400 1,200 Climbing FlightAware
06:13PM 41.3930 -83.7770 266° West 449 517 28,000 1,320 Climbing FlightAware
06:14PM 41.3870 -83.8750 265° West 443 510 28,900 1,500 Climbing FlightAware
06:15PM 41.3820 -83.9730 266° West 437 503 29,800 1,440 Climbing FlightAware
06:15PM 41.3770 -84.0620 266° West 431 496 30,600 1,800 Climbing FlightAware
06:16PM 41.3720 -84.1480 266° West 410 472 31,900 1,620 Climbing FlightAware
06:16PM 41.3660 -84.2380 265° West 408 470 32,500 900 Climbing FlightAware
06:17PM 41.3610 -84.3310 266° West 409 471 33,000 600 Climbing FlightAware
06:17PM 41.3560 -84.4100 265° West 413 475 33,200 360 Climbing FlightAware
06:18PM 41.3510 -84.4950 266° West 418 481 33,400 480 Climbing FlightAware
06:19PM 41.3450 -84.5890 265° West 418 481 33,800 480 Climbing FlightAware
06:19PM 41.3400 -84.6800 266° West 421 484 34,000 120 Climbing FlightAware
06:20PM 41.3340 -84.7720 265° West 423 487 34,000  Level FlightAware
06:20PM 41.3280 -84.8670 265° West 418 481 34,000  Level FlightAware
06:21PM 41.3230 -84.9470 265° West 406 467 34,000 -300 Level FlightAware
06:22PM 41.3160 -85.0450 265° West 403 464 33,700 -720 Descending FlightAware
06:22PM 41.3120 -85.1160 266° West 402 463 33,200 -1,020 Descending FlightAware
06:23PM 41.3060 -85.2060 265° West 408 470 32,600 -1,020 Descending FlightAware
06:23PM 41.2990 -85.2990 264° West 413 475 32,000 -960 Descending FlightAware
06:24PM 41.2930 -85.3880 265° West 413 475 31,500 -960 Descending FlightAware
06:24PM 41.2870 -85.4740 265° West 413 475 30,900 -1,020 Descending FlightAware
06:25PM 41.2810 -85.5640 265° West 414 476 30,300 -840 Descending FlightAware
06:26PM 41.2740 -85.6520 264° West 419 482 30,000 -300 Descending FlightAware
06:26PM 41.2680 -85.7450 265° West 416 479 30,000  Level FlightAware
06:27PM 41.2610 -85.8390 264° West 410 472 30,000  Level FlightAware
06:27PM 41.2550 -85.9150 264° West 409 471 30,000  Level FlightAware
06:28PM 41.2480 -86.0080 264° West 409 471 30,000  Level FlightAware
06:29PM 41.2400 -86.0990 263° West 407 468 30,000  Level FlightAware
06:29PM 41.2270 -86.1760 257° West 406 467 30,000  Level FlightAware
06:30PM 41.2160 -86.2670 261° West 406 467 30,000  Level FlightAware
06:30PM 41.2140 -86.3590 268° West 405 466 30,000  Level FlightAware
06:31PM 41.2110 -86.4390 267° West 403 464 30,000  Level FlightAware
06:32PM 41.2070 -86.5310 267° West 405 466 30,000  Level FlightAware
06:32PM 41.2020 -86.6110 265° West 406 467 30,000  Level FlightAware
06:33PM 41.1950 -86.6920 263° West 411 473 30,000 120 Level FlightAware
06:33PM 41.1870 -86.7850 264° West 420 483 30,200 1,020 Climbing FlightAware
06:34PM 41.1800 -86.8770 264° West 409 471 31,300 1,500 Climbing FlightAware
06:34PM 41.1730 -86.9650 264° West 406 467 32,000 780 Climbing FlightAware
06:35PM 41.1660 -87.0500 264° West 413 475 32,200 480 Climbing FlightAware
06:36PM 41.1580 -87.1390 263° West 417 480 32,600 960 Climbing FlightAware
06:36PM 41.1510 -87.2320 264° West 410 472 33,400 1,140 Climbing FlightAware
06:37PM 41.1440 -87.3070 263° West 409 471 33,900 480 Climbing FlightAware
06:37PM 41.1360 -87.4050 264° West 415 478 34,000 60 Climbing FlightAware
06:38PM 41.1270 -87.4980 263° West 419 482 34,000  Level FlightAware
06:38PM 41.1200 -87.5800 264° West 420 483 34,000  Level FlightAware
06:39PM 41.1120 -87.6730 264° West 408 470 34,000  Level FlightAware
06:40PM 41.1050 -87.7580 264° West 398 458 34,000  Level FlightAware
06:40PM 41.0970 -87.8370 262° West 397 457 34,000  Level FlightAware
06:41PM 41.0890 -87.9270 263° West 397 457 34,000  Level FlightAware
06:41PM 41.0820 -88.0070 263° West 396 456 34,000  Level FlightAware
06:42PM 41.0730 -88.0980 263° West 397 457 34,000  Level FlightAware
06:43PM 41.0660 -88.1720 263° West 397 457 34,000  Level FlightAware
06:43PM 41.0570 -88.2650 263° West 397 457 34,000  Level FlightAware
06:44PM 41.0500 -88.3430 263° West 397 457 34,000  Level FlightAware
06:44PM 41.0420 -88.4220 262° West 397 457 34,000  Level FlightAware
06:45PM 41.0340 -88.5120 263° West 397 457 34,000  Level FlightAware
06:45PM 41.0250 -88.6000 262° West 406 467 34,000  Level FlightAware
06:46PM 41.0170 -88.6870 263° West 407 468 34,000  Level FlightAware
06:47PM 41.0090 -88.7710 263° West 407 468 34,000  Level FlightAware
06:47PM 41.0010 -88.8510 262° West 408 470 34,000  Level FlightAware
06:48PM 40.9920 -88.9360 262° West 408 470 34,000  Level FlightAware
06:48PM 40.9830 -89.0250 262° West 408 470 34,000  Level FlightAware
06:49PM 40.9740 -89.1170 263° West 407 468 34,000  Level FlightAware
06:50PM 40.9640 -89.2060 262° West 408 470 34,000  Level FlightAware
06:50PM 40.9560 -89.2920 263° West 409 471 34,000  Level FlightAware
06:51PM 40.9470 -89.3750 262° West 409 471 34,000  Level FlightAware
06:51PM 40.9370 -89.4660 262° West 409 471 34,000  Level FlightAware
06:52PM 40.9290 -89.5460 262° West 408 470 34,000  Level FlightAware
06:52PM 40.9200 -89.6340 262° West 409 471 34,000  Level FlightAware
06:53PM 40.9100 -89.7200 261° West 407 468 34,000  Level FlightAware
06:54PM 40.9010 -89.8090 262° West 408 470 34,000  Level FlightAware
06:54PM 40.8920 -89.8860 261° West 407 468 34,000  Level FlightAware
06:55PM 40.8830 -89.9750 262° West 407 468 34,000  Level FlightAware
06:55PM 40.8730 -90.0650 262° West 407 468 34,000  Level FlightAware
06:56PM 40.8630 -90.1480 261° West 405 466 34,000  Level FlightAware
06:57PM 40.8530 -90.2400 262° West 406 467 34,000  Level FlightAware
06:57PM 40.8440 -90.3250 262° West 406 467 34,000  Level FlightAware
06:58PM 40.8360 -90.3920 261° West 406 467 34,000  Level FlightAware
06:58PM 40.8260 -90.4790 261° West 406 467 34,000  Level FlightAware
06:59PM 40.8150 -90.5730 261° West 405 466 34,000  Level FlightAware
06:59PM 40.8050 -90.6590 261° West 405 466 34,000  Level FlightAware
07:00PM 40.7940 -90.7540 261° West 405 466 34,000  Level FlightAware
07:01PM 40.7850 -90.8380 262° West 407 468 34,000  Level FlightAware
07:01PM 40.7740 -90.9240 260° West 406 467 34,000  Level FlightAware
07:02PM 40.7720 -90.9410 261° West 406 467 34,000  Level FlightAware
07:02PM 40.7540 -91.0950 261° West 408 470 34,000  Level FlightAware
07:03PM 40.7430 -91.1860 261° West 410 472 34,000  Level FlightAware
07:04PM 40.7320 -91.2730 261° West 409 471 34,000  Level FlightAware
07:04PM 40.7240 -91.3420 261° West 408 470 34,000  Level FlightAware
07:05PM 40.7120 -91.4360 260° West 408 470 34,000  Level FlightAware
07:05PM 40.7020 -91.5230 261° West 407 468 34,000  Level FlightAware
07:06PM 40.6910 -91.6120 261° West 405 466 34,000  Level FlightAware
07:06PM 40.6800 -91.6960 260° West 404 465 34,000  Level FlightAware
07:07PM 40.6700 -91.7760 261° West 404 465 34,000  Level FlightAware
07:08PM 40.6590 -91.8660 261° West 404 465 34,000  Level FlightAware
07:08PM 40.6470 -91.9540 260° West 404 465 34,000  Level FlightAware
07:09PM 40.6370 -92.0340 261° West 403 464 34,000  Level FlightAware
07:09PM 40.6270 -92.1150 261° West 403 464 34,000  Level FlightAware
07:10PM 40.6150 -92.2060 260° West 403 464 34,000  Level FlightAware
07:11PM 40.6020 -92.3010 260° West 403 464 34,000  Level FlightAware
07:11PM 40.5900 -92.3990 261° West 403 464 34,000  Level FlightAware
07:12PM 40.5780 -92.4890 260° West 403 464 34,000  Level FlightAware
07:13PM 40.5660 -92.5760 260° West 403 464 34,000  Level FlightAware
07:13PM 40.5520 -92.6780 260° West 405 466 34,000  Level FlightAware
07:14PM 40.5420 -92.7580 261° West 405 466 34,000  Level FlightAware
07:14PM 40.5300 -92.8420 259° West 405 466 34,000  Level FlightAware
07:15PM 40.5190 -92.9210 260° West 405 466 34,000  Level FlightAware
07:16PM 40.5056 -93.0231 260° West 402 463 34,000  Level FlightAware ADS-B
07:16PM 40.4990 -93.0711 260° West 401 461 34,000  Level FlightAware ADS-B
07:17PM 40.4810 -93.2030 260° West 398 458 34,000  Level FlightAware
07:17PM 40.4710 -93.2700 259° West 398 458 34,000  Level FlightAware
07:18PM 40.4580 -93.3640 260° West 398 458 34,000  Level FlightAware
07:18PM 40.4517 -93.4091 260° West 399 459 34,000  Level FlightAware ADS-B
07:19PM 40.4350 -93.5300 260° West 399 459 34,000  Level FlightAware
07:20PM 40.4237 -93.6059 259° West 401 461 34,000  Level FlightAware ADS-B
07:20PM 40.4100 -93.7010 259° West 401 461 34,000  Level FlightAware
07:21PM 40.3972 -93.7900 259° West 402 463 34,000  Level FlightAware ADS-B
07:22PM 40.3881 -93.8532 259° West 403 464 34,000  Level FlightAware ADS-B
07:22PM 40.3660 -94.0020 259° West 403 464 34,000  Level FlightAware
07:23PM 40.3550 -94.0800 260° West 403 464 34,000  Level FlightAware
07:24PM 40.3410 -94.1720 259° West 402 463 34,000  Level FlightAware
07:24PM 40.3290 -94.2550 259° West 402 463 34,000  Level FlightAware
07:25PM 40.3170 -94.3390 259° West 402 463 34,000  Level FlightAware
07:25PM 40.3040 -94.4220 258° West 402 463 34,000  Level FlightAware
07:26PM 40.2920 -94.4990 258° West 403 464 34,000  Level FlightAware
07:27PM 40.2790 -94.5880 259° West 403 464 34,000  Level FlightAware
07:27PM 40.2660 -94.6720 259° West 404 465 34,000  Level FlightAware
07:28PM 40.2540 -94.7520 259° West 404 465 34,000  Level FlightAware
07:28PM 40.2400 -94.8390 258° West 405 466 34,000  Level FlightAware
07:29PM 40.2280 -94.9220 259° West 407 468 34,000  Level FlightAware
07:29PM 40.2140 -95.0090 258° West 408 470 34,000  Level FlightAware
07:30PM 40.2000 -95.0950 258° West 409 471 34,000  Level FlightAware
07:31PM 40.1880 -95.1720 258° West 409 471 34,000  Level FlightAware
07:31PM 40.1750 -95.2550 258° West 410 472 34,000  Level FlightAware
07:32PM 40.1610 -95.3460 259° West 410 472 34,000  Level FlightAware
07:32PM 40.1470 -95.4350 258° West 410 472 34,000  Level FlightAware
07:33PM 40.1340 -95.5150 258° West 410 472 34,000  Level FlightAware
07:34PM 40.1200 -95.6040 258° West 410 472 34,000  Level FlightAware
07:34PM 40.1080 -95.6780 258° West 410 472 34,000  Level FlightAware
07:35PM 40.0920 -95.7760 258° West 411 473 34,000  Level FlightAware
07:35PM 40.0854 -95.8138 257° West 411 473 34,000  Level FlightAware ADS-B
07:36PM 40.0728 -95.8911 258° West 412 474 34,000  Level FlightAware ADS-B
07:36PM 40.0510 -96.0270 258° West 412 474 34,000  Level FlightAware
07:37PM 40.0360 -96.1170 258° West 412 474 34,000  Level FlightAware
07:38PM 40.0230 -96.1900 257° West 412 474 34,000  Level FlightAware
07:38PM 40.0080 -96.2810 258° West 413 475 34,000  Level FlightAware
07:39PM 39.9930 -96.3670 257° West 414 476 34,000  Level FlightAware
07:39PM 39.9780 -96.4570 258° West 414 476 34,000  Level FlightAware
07:40PM 39.9640 -96.5430 258° West 415 478 34,000  Level FlightAware
07:41PM 39.9500 -96.6220 257° West 415 478 34,000  Level FlightAware
07:41PM 39.9360 -96.7060 258° West 415 478 34,000  Level FlightAware
07:42PM 39.9210 -96.7940 257° West 415 478 34,000  Level FlightAware
07:42PM 39.9070 -96.8740 257° West 415 478 34,000  Level FlightAware
07:43PM 39.9015 -96.9048 257° West 415 478 34,000  Level FlightAware ADS-B
07:43PM 39.8760 -97.0480 257° West 414 476 34,000  Level FlightAware
07:44PM 39.8685 -97.0928 258° West 414 476 34,000  Level FlightAware ADS-B
07:45PM 39.8581 -97.1522 257° West 413 475 34,000  Level FlightAware ADS-B
07:46PM 39.8230 -97.3510 257° West 413 475 34,000  Level FlightAware
07:46PM 39.8090 -97.4290 257° West 413 475 34,000  Level FlightAware
07:47PM 39.7973 -97.4946 257° West 414 476 34,000  Level FlightAware ADS-B
07:47PM 39.7760 -97.6140 257° West 412 474 34,000  Level FlightAware
07:48PM 39.7582 -97.7114 257° West 413 475 34,000  Level FlightAware ADS-B
07:49PM 39.7440 -97.7870 256° West 413 475 34,000  Level FlightAware
07:49PM 39.7260 -97.8890 257° West 413 475 34,000  Level FlightAware
07:50PM 39.7020 -98.0170 256° West 412 474 34,000  Level FlightAware
07:51PM 39.6860 -98.1030 256° West 412 474 34,000  Level FlightAware
07:51PM 39.6690 -98.1950 257° West 411 473 34,000  Level FlightAware
07:52PM 39.6550 -98.2720 257° West 411 473 34,000  Level FlightAware
07:53PM 39.6400 -98.3450 255° West 411 473 34,000  Level FlightAware
07:53PM 39.6260 -98.4190 256° West 411 473 34,000  Level FlightAware
07:54PM 39.6120 -98.4920 256° West 411 473 34,000  Level FlightAware
07:54PM 39.5980 -98.5650 256° West 411 473 34,000  Level FlightAware
07:55PM 39.5840 -98.6380 256° West 411 473 34,000  Level FlightAware
07:56PM 39.5700 -98.7120 256° West 411 473 34,000  Level FlightAware
07:56PM 39.5560 -98.7850 256° West 411 473 34,000  Level FlightAware
07:57PM 39.5420 -98.8580 256° West 411 473 34,000  Level FlightAware
07:57PM 39.5280 -98.9310 256° West 411 473 34,000  Level FlightAware
07:58PM 39.5140 -99.0050 256° West 411 473 34,000  Level FlightAware
07:59PM 39.5000 -99.0780 256° West 411 473 34,000  Level FlightAware
07:59PM 39.4850 -99.1510 255° West 411 473 34,000  Level FlightAware
08:00PM 39.4710 -99.2280 257° West 411 473 34,000  Level FlightAware
08:01PM 39.4570 -99.3010 256° West 411 473 34,000  Level FlightAware
08:01PM 39.4420 -99.3740 255° West 411 473 34,000  Level FlightAware
08:02PM 39.3897 -99.6394 255° West 413 475 34,000  Level Denver Center
08:03PM 39.3578 -99.8003 256° West 415 478 34,000  Level Denver Center
08:04PM 39.3297 -99.9378 255° West 414 476 34,000  Level Denver Center
08:05PM 39.3022 -100.0733 255° West 410 472 34,000  Level Denver Center
08:11PM 39.1240 -100.9320 255° West 412 474 34,000  Level FlightAware
08:11PM 39.0990 -101.0480 255° West 410 472 34,000  Level FlightAware
08:12PM 39.0800 -101.1380 255° West 408 470 34,000  Level FlightAware
08:13PM 39.0620 -101.2180 254° West 407 468 34,000  Level FlightAware
08:13PM 39.0460 -101.2950 255° West 406 467 34,000  Level FlightAware
08:14PM 39.0270 -101.3800 254° West 405 466 34,000  Level FlightAware
08:14PM 39.0100 -101.4600 255° West 405 466 34,000  Level FlightAware
08:15PM 38.9920 -101.5430 254° West 406 467 34,000  Level FlightAware
08:15PM 38.9740 -101.6250 254° West 405 466 34,000  Level FlightAware
08:16PM 38.9560 -101.7060 254° West 405 466 34,000  Level FlightAware
08:17PM 38.9390 -101.7820 254° West 405 466 34,000  Level FlightAware
08:17PM 38.9210 -101.8660 255° West 405 466 34,000  Level FlightAware
08:18PM 38.9020 -101.9500 254° West 404 465 34,000  Level FlightAware
08:18PM 38.8850 -102.0250 254° West 405 466 34,000  Level FlightAware
08:19PM 38.8680 -102.1040 255° West 406 467 34,000  Level FlightAware
08:20PM 38.8480 -102.1910 254° West 407 468 34,000  Level FlightAware
08:20PM 38.8290 -102.2770 254° West 407 468 34,000  Level FlightAware
08:21PM 38.8100 -102.3580 253° West 407 468 34,000  Level FlightAware
08:21PM 38.7930 -102.4330 254° West 408 470 34,000  Level FlightAware
08:22PM 38.7740 -102.5170 254° West 408 470 34,000  Level FlightAware
08:23PM 38.7550 -102.6020 254° West 407 468 34,000  Level FlightAware
08:23PM 38.7360 -102.6830 253° West 406 467 34,000  Level FlightAware
08:24PM 38.7180 -102.7600 253° West 406 467 34,000  Level FlightAware
08:24PM 38.6990 -102.8440 254° West 405 466 34,000  Level FlightAware
08:25PM 38.6820 -102.9170 253° West 405 466 34,000  Level FlightAware
08:25PM 38.6620 -103.0010 253° West 404 465 34,000  Level FlightAware
08:26PM 38.6420 -103.0870 253° West 404 465 34,000  Level FlightAware
08:27PM 38.6250 -103.1610 254° West 402 463 34,000  Level FlightAware
08:27PM 38.6070 -103.2390 254° West 403 464 34,000  Level FlightAware
08:28PM 38.5870 -103.3220 253° West 401 461 34,000  Level FlightAware
08:28PM 38.5670 -103.4050 253° West 398 458 34,000  Level FlightAware
08:29PM 38.5510 -103.4740 254° West 397 457 34,000  Level FlightAware
08:30PM 38.5320 -103.5550 253° West 398 458 34,000  Level FlightAware
08:30PM 38.5130 -103.6350 253° West 398 458 34,000  Level FlightAware
08:31PM 38.4940 -103.7110 252° West 398 458 34,000  Level FlightAware
08:31PM 38.4740 -103.7950 253° West 400 460 34,000  Level FlightAware
08:32PM 38.4560 -103.8690 253° West 402 463 34,000  Level FlightAware
08:32PM 38.4360 -103.9520 253° West 403 464 34,000  Level FlightAware
08:33PM 38.4170 -104.0300 253° West 404 465 34,000  Level FlightAware
08:34PM 38.3970 -104.1150 253° West 407 468 34,000  Level FlightAware
08:34PM 38.3790 -104.1880 253° West 408 470 34,000  Level FlightAware
08:35PM 38.3590 -104.2680 252° West 408 470 34,000  Level FlightAware
08:35PM 38.3380 -104.3540 253° West 413 475 34,000  Level FlightAware
08:36PM 38.3170 -104.4360 252° West 414 476 34,000  Level FlightAware
08:36PM 38.2990 -104.5090 253° West 415 478 34,000  Level FlightAware
08:37PM 38.2780 -104.5950 253° West 417 480 34,000  Level FlightAware
08:38PM 38.2560 -104.6810 252° West 414 476 34,000  Level FlightAware
08:38PM 38.2380 -104.7550 253° West 412 474 34,000  Level FlightAware
08:39PM 38.2180 -104.8360 253° West 412 474 34,000  Level FlightAware
08:39PM 38.1960 -104.9210 252° West 411 473 34,000  Level FlightAware
08:40PM 38.1750 -105.0050 252° West 410 472 34,000  Level FlightAware
08:41PM 38.1560 -105.0800 252° West 410 472 34,000  Level FlightAware
08:41PM 38.1360 -105.1590 252° West 404 465 34,000  Level FlightAware
08:42PM 38.1150 -105.2420 252° West 402 463 34,000  Level FlightAware
08:42PM 38.0920 -105.3280 251° West 400 460 34,000  Level FlightAware
08:43PM 38.0680 -105.4220 252° West 400 460 34,000  Level FlightAware
08:43PM 38.0568 -105.4664 252° West 401 461 34,000  Level FlightAware ADS-B (KMTJ)
08:44PM 38.0280 -105.5780 252° West 400 460 34,000  Level FlightAware
08:45PM 38.0073 -105.6574 252° West 402 463 34,000  Level FlightAware ADS-B (KMTJ)
08:45PM 37.9893 -105.7267 252° West 401 461 34,000  Level FlightAware ADS-B (KMTJ)
08:46PM 37.9669 -105.8124 252° West 399 459 34,000  Level FlightAware ADS-B (KMTJ)
08:47PM 37.9491 -105.8802 252° West 400 460 34,000  Level FlightAware ADS-B (KMTJ)
08:47PM 37.9312 -105.9482 252° West 399 459 34,000  Level FlightAware ADS-B (KMTJ)
08:48PM 37.9139 -106.0140 252° West 398 458 34,000  Level FlightAware ADS-B (KMTJ)
08:48PM 37.8958 -106.0823 251° West 398 458 34,000  Level FlightAware ADS-B (KMTJ)
08:49PM 37.8709 -106.1761 251° West 397 457 34,000  Level FlightAware ADS-B (KMTJ)
08:49PM 37.8555 -106.2340 251° West 397 457 34,000  Level FlightAware ADS-B (KMTJ)
08:50PM 37.8358 -106.3080 251° West 397 457 34,000  Level FlightAware ADS-B (KMTJ)
08:50PM 37.8187 -106.3722 251° West 396 456 34,000  Level FlightAware ADS-B (KMTJ)
08:51PM 37.8000 -106.4419 251° West 395 455 34,000  Level FlightAware ADS-B (KMTJ)
08:51PM 37.7823 -106.5076 251° West 396 456 34,000  Level FlightAware ADS-B (KMTJ)
08:52PM 37.7645 -106.5738 251° West 400 460 34,000  Level FlightAware ADS-B (KMTJ)
08:52PM 37.7463 -106.6413 251° West 402 463 34,000  Level FlightAware ADS-B (KMTJ)
08:53PM 37.7287 -106.7067 251° West 403 464 34,000  Level FlightAware ADS-B (KMTJ)
08:53PM 37.7096 -106.7768 251° West 402 463 34,000  Level FlightAware ADS-B (KMTJ)
08:54PM 37.6897 -106.8500 251° West 401 461 34,000  Level FlightAware ADS-B (KMTJ)
08:54PM 37.6714 -106.9172 251° West 400 460 34,000  Level FlightAware ADS-B (KMTJ)
08:55PM 37.6534 -106.9829 251° West 399 459 34,000  Level FlightAware ADS-B (KMTJ)
08:55PM 37.6353 -107.0490 251° West 397 457 34,000  Level FlightAware ADS-B (KMTJ)
08:56PM 37.6167 -107.1159 251° West 397 457 34,000  Level FlightAware ADS-B (KMTJ)
08:56PM 37.5984 -107.1818 251° West 397 457 34,000  Level FlightAware ADS-B (KMTJ)
08:57PM 37.5795 -107.2500 251° West 396 456 34,000  Level FlightAware ADS-B (KMTJ)
08:57PM 37.5617 -107.3148 251° West 396 456 34,000  Level FlightAware ADS-B (KMTJ)
08:58PM 37.5433 -107.3815 251° West 394 453 34,000  Level FlightAware ADS-B (KMTJ)
08:58PM 37.5252 -107.4463 251° West 393 452 34,000  Level FlightAware ADS-B (KMTJ)
08:59PM 37.5080 -107.5080 251° West 391 450 34,000  Level FlightAware ADS-B (KMTJ)
08:59PM 37.4894 -107.5748 251° West 391 450 34,000  Level FlightAware ADS-B (KMTJ)
09:00PM 37.4695 -107.6457 251° West 390 449 34,000  Level FlightAware ADS-B (KMTJ)
09:01PM 37.4490 -107.7177 250° West 391 450 34,000  Level FlightAware ADS-B (KMTJ)
09:01PM 37.4309 -107.7820 250° West 390 449 34,000  Level FlightAware ADS-B (KMTJ)
09:02PM 37.4129 -107.8458 250° West 389 448 34,000  Level FlightAware ADS-B (KMTJ)
09:02PM 37.3942 -107.9120 250° West 389 448 34,000  Level FlightAware ADS-B (KMTJ)
09:03PM 37.3751 -107.9792 250° West 390 449 34,000  Level FlightAware ADS-B (KMTJ)
09:03PM 37.3550 -108.0502 250° West 389 448 34,000  Level FlightAware ADS-B (KMTJ)
09:04PM 37.3296 -108.1388 250° West 389 448 34,000  Level FlightAware ADS-B (KMTJ)
09:04PM 37.3124 -108.1989 250° West 389 448 34,000  Level FlightAware ADS-B (KMTJ)
09:05PM 37.2929 -108.2668 250° West 389 448 34,000  Level FlightAware ADS-B (KMTJ)
09:05PM 37.2747 -108.3297 250° West 389 448 34,000  Level FlightAware ADS-B (KMTJ)
09:06PM 37.2502 -108.4147 250° West 389 448 34,000  Level FlightAware ADS-B (KMTJ)
09:07PM 37.2321 -108.4771 250° West 389 448 34,000  Level FlightAware ADS-B (KMTJ)
09:07PM 37.2148 -108.5367 250° West 389 448 34,000  Level FlightAware ADS-B (KMTJ)
09:08PM 37.1861 -108.6354 250° West 389 448 34,000  Level FlightAware ADS-B (KMTJ)
09:08PM 37.1654 -108.7064 250° West 389 448 34,000  Level FlightAware ADS-B (KMTJ)
09:09PM 37.1445 -108.7781 250° West 390 449 34,000  Level FlightAware ADS-B (KMTJ)
09:10PM 37.1168 -108.8719 250° West 389 448 34,000  Level FlightAware ADS-B (KMTJ)
09:10PM 37.0929 -108.9530 250° West 388 447 34,000  Level FlightAware ADS-B (KMTJ)
09:11PM 37.0663 -109.0434 250° West 390 449 34,000  Level FlightAware ADS-B (KMTJ)
09:12PM 37.0487 -109.1029 250° West 390 449 34,000  Level FlightAware ADS-B (KMTJ)
09:12PM 37.0198 -109.2002 250° West 392 451 34,000  Level FlightAware ADS-B (KMTJ)
09:13PM 37.0080 -109.2360 248° West 390 449 34,000  Level FlightAware
09:13PM 36.9800 -109.3333 250° West 391 450 34,000  Level FlightAware ADS-B (KMTJ)
09:14PM 36.9481 -109.4396 249° West 390 449 34,000  Level FlightAware ADS-B (KMTJ)
09:15PM 36.9283 -109.5055 249° West 390 449 34,000  Level FlightAware ADS-B (KMTJ)
09:15PM 36.8975 -109.6082 249° West 392 451 34,000  Level FlightAware ADS-B (KMTJ)
09:16PM 36.9090 -109.5600 73° East 390 449 34,000  Level FlightAware
09:16PM 36.8650 -109.7154 251° West 395 455 34,000  Level FlightAware ADS-B (KMTJ)
09:17PM 36.8690 -109.6890 79° East 390 449 34,000  Level FlightAware
09:18PM 36.7984 -109.9352 250° West 398 458 34,000  Level FlightAware ADS-B (KMTJ)
09:19PM 36.7789 -109.9988 249° West 398 458 34,000  Level FlightAware ADS-B (KMTJ)
09:19PM 36.8100 -109.8820 72° East 390 449 34,000  Level FlightAware
09:19PM 36.7741 -110.0146 251° West 396 456 34,000  Level FlightAware ADS-B (KMTJ)
09:20PM 36.7690 -110.0130 166° South 390 449 34,000  Level FlightAware
09:21PM 36.7490 -110.0790 249° West 390 449 34,000  Level FlightAware
09:22PM 36.7290 -110.1430 249° West 390 449 34,000  Level FlightAware
09:23PM 36.6000 -110.5770 250° West 393 452 34,000  Level FlightAware
09:24PM 36.5780 -110.6490 249° West 393 452 34,000  Level FlightAware
09:24PM 36.5550 -110.7200 248° West 393 452 34,000  Level FlightAware
09:25PM 36.5320 -110.7950 249° West 394 453 34,000  Level FlightAware
09:25PM 36.5080 -110.8710 249° West 394 453 34,000  Level FlightAware
09:26PM 36.4840 -110.9460 248° West 392 451 34,000  Level FlightAware
09:27PM 36.4600 -111.0220 249° West 392 451 34,000  Level FlightAware
09:27PM 36.4370 -111.0940 248° West 393 452 34,000  Level FlightAware
09:28PM 36.4140 -111.1670 249° West 394 453 34,000  Level FlightAware
09:28PM 36.3920 -111.2360 248° West 394 453 34,000  Level FlightAware
09:29PM 36.3680 -111.3110 248° West 395 455 34,000  Level FlightAware
09:30PM 36.3400 -111.3850 245° Southwest 395 455 34,000  Level FlightAware
09:30PM 36.3140 -111.4590 246° West 394 453 34,000  Level FlightAware
09:31PM 36.2900 -111.5250 246° West 395 455 34,000  Level FlightAware
09:31PM 36.2630 -111.6010 246° West 394 453 34,000  Level FlightAware
09:32PM 36.2370 -111.6750 246° West 393 452 34,000  Level FlightAware
09:32PM 36.2130 -111.7410 246° West 395 455 34,000  Level FlightAware
09:33PM 36.1860 -111.8140 245° Southwest 397 457 34,000  Level FlightAware
09:34PM 36.1590 -111.8900 246° West 398 458 34,000  Level FlightAware
09:34PM 36.1350 -111.9570 246° West 399 459 34,000  Level FlightAware
09:35PM 36.1080 -112.0300 245° Southwest 395 455 34,000  Level FlightAware
09:35PM 36.0800 -112.1070 246° West 387 445 34,000  Level FlightAware
09:36PM 36.0550 -112.1750 246° West 386 444 34,000  Level FlightAware
09:37PM 36.0290 -112.2480 246° West 387 445 34,000  Level FlightAware
09:37PM 36.0020 -112.3200 245° Southwest 386 444 34,000  Level FlightAware
09:38PM 35.9800 -112.3810 246° West 385 443 34,000  Level FlightAware
09:38PM 35.9520 -112.4560 245° Southwest 384 442 34,000  Level FlightAware
09:39PM 35.9260 -112.5280 246° West 384 442 34,000  Level FlightAware
09:39PM 35.9020 -112.5920 245° Southwest 383 441 34,000  Level FlightAware
09:40PM 35.8760 -112.6620 245° Southwest 383 441 34,000  Level FlightAware
09:41PM 35.8490 -112.7350 245° Southwest 383 441 34,000  Level FlightAware
09:41PM 35.8230 -112.8050 245° Southwest 383 441 34,000  Level FlightAware
09:42PM 35.7959 -112.8774 245° Southwest 383 441 34,000  Level FlightAware ADS-B (KPRC)
09:42PM 35.7710 -112.9430 245° Southwest 382 440 34,000  Level FlightAware
09:43PM 35.7440 -113.0150 245° Southwest 383 441 34,000  Level FlightAware
09:43PM 35.7210 -113.0770 245° Southwest 384 442 34,000  Level FlightAware
09:44PM 35.6930 -113.1510 245° Southwest 385 443 34,000  Level FlightAware
09:45PM 35.6670 -113.2220 246° West 386 444 34,000  Level FlightAware
09:45PM 35.6400 -113.2940 245° Southwest 385 443 34,000  Level FlightAware
09:46PM 35.6160 -113.3560 245° Southwest 384 442 34,000  Level FlightAware
09:46PM 35.5890 -113.4260 245° Southwest 384 442 34,000  Level FlightAware
09:47PM 35.5610 -113.4990 245° Southwest 384 442 34,000  Level FlightAware
09:48PM 35.5350 -113.5700 246° West 382 440 34,000  Level FlightAware
09:48PM 35.5110 -113.6320 245° Southwest 382 440 34,000  Level FlightAware
09:49PM 35.4840 -113.7020 245° Southwest 383 441 34,000  Level FlightAware
09:49PM 35.4560 -113.7750 245° Southwest 384 442 34,000  Level FlightAware
09:50PM 35.4310 -113.8390 244° Southwest 384 442 34,000  Level FlightAware
09:50PM 35.4050 -113.9070 245° Southwest 384 442 34,000  Level FlightAware
09:51PM 35.3760 -113.9810 244° Southwest 384 442 34,000  Level FlightAware
09:52PM 35.3520 -114.0450 245° Southwest 386 444 34,000  Level FlightAware
09:52PM 35.3240 -114.1170 245° Southwest 386 444 34,000  Level FlightAware
09:53PM 35.2960 -114.1880 244° Southwest 387 445 34,000  Level FlightAware
09:53PM 35.2700 -114.2570 245° Southwest 387 445 34,000  Level FlightAware
09:54PM 35.2440 -114.3220 244° Southwest 387 445 34,000  Level FlightAware
09:55PM 35.2160 -114.3940 245° Southwest 386 444 34,000  Level FlightAware
09:55PM 35.1880 -114.4660 245° Southwest 386 444 34,000  Level FlightAware
09:56PM 35.1610 -114.5340 244° Southwest 386 444 34,000  Level FlightAware
09:56PM 35.1350 -114.5990 244° Southwest 386 444 34,000  Level FlightAware
09:57PM 35.1080 -114.6680 244° Southwest 386 444 34,000  Level FlightAware
09:58PM 35.0800 -114.7400 245° Southwest 387 445 34,000  Level FlightAware
09:58PM 35.0510 -114.8110 244° Southwest 388 447 34,000  Level FlightAware
09:59PM 35.0280 -114.8710 245° Southwest 389 448 34,000  Level FlightAware
09:59PM 34.9990 -114.9440 244° Southwest 389 448 34,000  Level FlightAware
10:00PM 34.9700 -115.0160 244° Southwest 391 450 34,000  Level FlightAware
10:00PM 34.9420 -115.0860 244° Southwest 392 451 34,000 -120 Level FlightAware
10:01PM 34.9160 -115.1510 244° Southwest 392 451 33,900 -660 Descending FlightAware
10:02PM 34.8880 -115.2200 244° Southwest 393 452 33,300 -1,020 Descending FlightAware
10:02PM 34.8580 -115.2970 245° Southwest 394 453 32,700 -960 Descending FlightAware
10:03PM 34.8330 -115.3580 243° Southwest 399 459 32,200 -1,020 Descending FlightAware
10:03PM 34.8030 -115.4330 244° Southwest 397 457 31,600 -1,080 Descending FlightAware
10:04PM 34.7730 -115.5060 243° Southwest 396 456 30,900 -1,020 Descending FlightAware
10:05PM 34.7450 -115.5740 243° Southwest 394 453 30,400 -840 Descending FlightAware
10:05PM 34.7200 -115.6380 245° Southwest 390 449 30,000 -660 Descending FlightAware
10:06PM 34.6920 -115.7070 244° Southwest 389 448 29,700 -720 Descending FlightAware
10:06PM 34.6630 -115.7780 244° Southwest 386 444 29,200 -960 Descending FlightAware
10:07PM 34.6350 -115.8450 243° Southwest 381 438 28,600 -1,020 Descending FlightAware
10:07PM 34.6080 -115.9120 244° Southwest 379 436 28,000 -1,080 Descending FlightAware
10:08PM 34.5810 -115.9770 243° Southwest 376 433 27,400 -1,080 Descending FlightAware
10:09PM 34.5530 -116.0450 243° Southwest 372 428 26,800 -1,560 Descending FlightAware
10:09PM 34.5280 -116.1060 244° Southwest 377 434 25,600 -2,100 Descending FlightAware
10:10PM 34.5000 -116.1740 243° Southwest 388 447 24,400 -1,560 Descending FlightAware
10:10PM 34.4710 -116.2440 243° Southwest 387 445 23,800 -1,020 Descending FlightAware
10:11PM 34.4450 -116.3050 243° Southwest 384 442 23,300 -1,080 Descending FlightAware
10:11PM 34.4190 -116.3700 244° Southwest 385 443 22,700 -1,080 Descending FlightAware
10:12PM 34.3900 -116.4400 243° Southwest 385 443 22,100 -1,020 Descending FlightAware
10:13PM 34.3620 -116.5070 243° Southwest 383 441 21,500 -1,080 Descending FlightAware
10:13PM 34.3340 -116.5740 243° Southwest 381 438 20,900 -1,020 Descending FlightAware
10:13PM 34.3280 -116.5874 242° Southwest 381 438 20,800 -960 Descending FlightAware ADS-B (KCRQ)
10:14PM 34.2950 -116.6663 243° Southwest 378 435 20,100 -1,020 Descending FlightAware ADS-B (KCRQ)
10:15PM 34.2678 -116.7312 243° Southwest 377 434 19,400 -840 Descending FlightAware ADS-B (RCKH / KHH)
10:15PM 34.2329 -116.8140 243° Southwest 373 429 19,000 -360 Descending FlightAware ADS-B (RCKH / KHH)
10:16PM 34.2074 -116.8747 243° Southwest 371 427 19,000  Level FlightAware ADS-B (RCKH / KHH)
10:16PM 34.1828 -116.9328 243° Southwest 370 426 19,000  Level FlightAware ADS-B (RCKH / KHH)
10:17PM 34.1579 -116.9913 243° Southwest 371 427 19,000  Level FlightAware ADS-B (KCRQ)
10:18PM 34.1288 -117.0602 243° Southwest 372 428 19,000 -300 Level FlightAware ADS-B (RCKH / KHH)
10:18PM 34.1104 -117.1038 243° Southwest 370 426 18,700 -900 Descending FlightAware ADS-B (RCKH / KHH)
10:18PM 34.0925 -117.1449 242° Southwest 366 421 18,300 -1,620 Descending FlightAware ADS-B (KCRQ)
10:19PM 34.0648 -117.2056 241° Southwest 349 402 17,300 -1,560 Descending FlightAware ADS-B (RCKH / KHH)
10:19PM 34.0562 -117.2265 243° Southwest 345 397 17,000 -1,560 Descending FlightAware ADS-B (KCRQ)
10:19PM 34.0484 -117.2549 252° West 339 390 16,600 -2,160 Descending FlightAware ADS-B (KCRQ)
10:20PM 34.0422 -117.3069 262° West 332 382 15,500 -2,280 Descending FlightAware ADS-B (RCKH / KHH)
10:20PM 34.0371 -117.3655 264° West 329 379 14,300 -2,280 Descending FlightAware ADS-B (RCKH / KHH)
10:21PM 34.0303 -117.4369 263° West 325 374 12,900 -1,980 Descending FlightAware ADS-B (KCRQ)
10:22PM 34.0241 -117.5026 264° West 313 360 11,800 -1,380 Descending FlightAware ADS-B (KCRQ)
10:22PM 34.0194 -117.5511 263° West 288 331 11,300 -1,380 Descending FlightAware ADS-B (KCRQ)
10:23PM 34.0120 -117.6310 264° West 275 316 10,000 -1,380 Descending FlightAware
10:23PM 34.0105 -117.6446 262° West 275 316 10,000 -240 Level FlightAware ADS-B (KCRQ)
10:24PM 34.0042 -117.7075 263° West 261 300 9,800 -720 Descending FlightAware ADS-B (KCRQ)
10:24PM 33.9999 -117.7531 264° West 259 298 9,100 -1,260 Descending FlightAware ADS-B (KCRQ)
10:25PM 33.9978 -117.7752 263° West 254 292 8,800 -1,140 Descending FlightAware ADS-B (KCRQ)
10:25PM 33.9951 -117.8039 264° West 252 290 8,400 -1,200 Descending FlightAware ADS-B (KCRQ)
10:25PM 33.9920 -117.8349 263° West 257 296 8,000 -1,380 Descending FlightAware ADS-B (KCRQ)
10:26PM 33.9873 -117.8818 263° West 269 310 7,200 -1,260 Descending FlightAware ADS-B (KCRQ)
10:26PM 33.9840 -117.9185 264° West 264 304 6,800 -960 Descending FlightAware ADS-B (KCRQ)
10:27PM 33.9810 -117.9493 263° West 260 299 6,500 -1,020 Descending FlightAware ADS-B (KCRQ)
10:27PM 33.9740 -118.0160 263° West 240 276 5,700 -960 Descending FlightAware
10:28PM 33.9720 -118.0410 264° West 228 262 5,500 -780 Descending FlightAware
10:28PM 33.9700 -118.0570 261° West 225 259 5,300 -960 Descending FlightAware
10:28PM 33.9675 -118.0820 263° West 221 254 5,000 -1,140 Descending FlightAware ADS-B (KCRQ)
10:29PM 33.9630 -118.1340 264° West 205 236 4,100 -1,140 Descending FlightAware
10:29PM 33.9600 -118.1560 261° West 195 224 3,800 -900 Descending FlightAware
10:30PM 33.9580 -118.1780 264° West 194 223 3,500 -1,140 Descending FlightAware
10:30PM 33.9560 -118.2010 264° West 191 220 3,000 -1,140 Descending FlightAware
10:30PM 33.9540 -118.2210 263° West 188 216 2,700 -960 Descending FlightAware
10:31PM 33.9520 -118.2350 260° West 183 211 2,500 -780 Descending FlightAware
10:31PM 33.9511 -118.2477 265° West 181 208 2,400 -900 Descending FlightAware ADS-B (KCRQ)
10:31PM 33.9494 -118.2641 263° West 182 209 2,100 -1,020 Descending FlightAware ADS-B (KCRQ)
10:32PM 33.9450 -118.3020 262° West 141 162 1,400 -840 Descending FlightAware
10:32PM 33.9440 -118.3140 264° West 140 161 1,300 -720 Descending FlightAware
10:33PM 33.9420 -118.3350 263° West 140 161 900 -840 Descending FlightAware
10:33PM 33.9410 -118.3480 265° West 141 162 700 -840 Descending FlightAware
10:33PM 33.9380 -118.3720 261° West 145 167 300 -480 Descending FlightAware
10:34PM 33.9360 -118.3990 265° West 145 167 200 -180 Descending FlightAware